RYR7DP EGSS-LIMJ
Flight info
| Callsign | RYR7DP |
|---|---|
| Flight time | 1h 41m |
| Altitude | 23000 |
| Route | NUGBO M183 SILVA Q41 COWLY L612 MID/N0456F330 UL612 OGULO DCT OKASI DCT OKEKO DCT MOU DCT MADIV DCT MOKIP DCT TUFTA DCT GEVEA DCT MOBLO DCT LURAG DCT OBUXA DCT TOP/N0395F190 M730 TESTO |
| Aircraft | B38M/M-SDE1FGHILORVWXY/HB1 |
Departure
| Time | 2026-04-22 08:26 |
|---|---|
| Airport | London Stansted Airport (EGSS) |
Arrival
| Time | 2026-04-22 10:08 |
|---|---|
| Airport | Genoa Cristoforo Colombo Airport (LIMJ) |
| Time | Latitude | Longitude | Altitude | Speed | Heading |
|---|---|---|---|---|---|
| 2026-04-22 08:04 | 51.88903 | 0.25270 | 336 ft | 0 kts | 43° |
| 2026-04-22 08:18 | 51.88889 | 0.25251 | 334 ft | 4 kts | 34° |
| 2026-04-22 08:19 | 51.88866 | 0.25233 | 334 ft | 4 kts | 7° |
| 2026-04-22 08:19 | 51.88843 | 0.25240 | 334 ft | 3 kts | 316° |
| 2026-04-22 08:19 | 51.88838 | 0.25249 | 335 ft | 0 kts | 313° |
| 2026-04-22 08:21 | 51.88845 | 0.25238 | 334 ft | 4 kts | 313° |
| 2026-04-22 08:22 | 51.88877 | 0.25181 | 337 ft | 10 kts | 313° |
| 2026-04-22 08:22 | 51.88943 | 0.25065 | 351 ft | 17 kts | 313° |
| 2026-04-22 08:22 | 51.89000 | 0.24877 | 352 ft | 22 kts | 308° |
| 2026-04-22 08:22 | 51.88985 | 0.24693 | 345 ft | 20 kts | 223° |
| 2026-04-22 08:23 | 51.88877 | 0.24532 | 351 ft | 23 kts | 222° |
| 2026-04-22 08:23 | 51.88739 | 0.24326 | 350 ft | 31 kts | 222° |
| 2026-04-22 08:23 | 51.88568 | 0.24069 | 349 ft | 35 kts | 223° |
| 2026-04-22 08:23 | 51.88384 | 0.23793 | 347 ft | 37 kts | 223° |
| 2026-04-22 08:24 | 51.88189 | 0.23501 | 340 ft | 39 kts | 223° |
| 2026-04-22 08:24 | 51.87985 | 0.23195 | 339 ft | 40 kts | 223° |
| 2026-04-22 08:24 | 51.87776 | 0.22882 | 337 ft | 41 kts | 223° |
| 2026-04-22 08:24 | 51.87582 | 0.22590 | 337 ft | 35 kts | 223° |
| 2026-04-22 08:25 | 51.87414 | 0.22330 | 335 ft | 24 kts | 237° |
| 2026-04-22 08:25 | 51.87458 | 0.22102 | 329 ft | 22 kts | 311° |
| 2026-04-22 08:25 | 51.87536 | 0.22033 | 332 ft | 8 kts | 39° |
| 2026-04-22 08:25 | 51.87544 | 0.22045 | 331 ft | 0 kts | 42° |
| 2026-04-22 08:26 | 51.87553 | 0.22057 | 329 ft | 6 kts | 42° |
| 2026-04-22 08:26 | 51.87783 | 0.22403 | 335 ft | 85 kts | 43° |
| 2026-04-22 08:26 | 51.88380 | 0.23330 | 371 ft | 148 kts | 48° |
| 2026-04-22 08:26 | 51.89134 | 0.24628 | 1011 ft | 164 kts | 50° |
| 2026-04-22 08:27 | 51.90006 | 0.26006 | 1690 ft | 190 kts | 46° |
| 2026-04-22 08:27 | 51.91062 | 0.27515 | 2528 ft | 201 kts | 47° |
| 2026-04-22 08:27 | 51.92150 | 0.28982 | 3731 ft | 211 kts | 37° |
| 2026-04-22 08:27 | 51.93604 | 0.29712 | 4728 ft | 230 kts | 8° |
| 2026-04-22 08:28 | 51.95215 | 0.29145 | 5769 ft | 248 kts | 336° |
| 2026-04-22 08:28 | 51.96499 | 0.27202 | 6785 ft | 261 kts | 302° |
| 2026-04-22 08:28 | 51.97023 | 0.24400 | 7691 ft | 267 kts | 276° |
| 2026-04-22 08:28 | 51.97305 | 0.21360 | 8674 ft | 271 kts | 281° |
| 2026-04-22 08:29 | 51.97632 | 0.18435 | 9360 ft | 257 kts | 281° |
| 2026-04-22 08:29 | 51.97962 | 0.15463 | 9767 ft | 269 kts | 281° |
| 2026-04-22 08:29 | 51.98298 | 0.12404 | 10532 ft | 284 kts | 280° |
| 2026-04-22 08:29 | 51.98656 | 0.09135 | 11061 ft | 304 kts | 280° |
| 2026-04-22 08:30 | 51.98878 | 0.05622 | 11546 ft | 323 kts | 263° |
| 2026-04-22 08:30 | 51.98438 | 0.01994 | 12213 ft | 334 kts | 256° |
| 2026-04-22 08:30 | 51.97954 | -0.01746 | 12986 ft | 341 kts | 257° |
| 2026-04-22 08:30 | 51.97473 | -0.05482 | 13972 ft | 342 kts | 257° |
| 2026-04-22 08:31 | 51.96980 | -0.09288 | 14745 ft | 347 kts | 257° |
| 2026-04-22 08:31 | 51.96478 | -0.13161 | 15432 ft | 355 kts | 257° |
| 2026-04-22 08:31 | 51.95404 | -0.21392 | 16112 ft | 388 kts | 257° |
| 2026-04-22 08:32 | 51.94845 | -0.25659 | 16736 ft | 392 kts | 257° |
| 2026-04-22 08:32 | 51.94273 | -0.30012 | 17419 ft | 397 kts | 257° |
| 2026-04-22 08:32 | 51.93690 | -0.34438 | 18029 ft | 403 kts | 258° |
| 2026-04-22 08:32 | 51.93104 | -0.38873 | 18837 ft | 402 kts | 258° |
| 2026-04-22 08:33 | 51.92522 | -0.43266 | 19487 ft | 403 kts | 259° |
| 2026-04-22 08:33 | 51.91928 | -0.47716 | 20085 ft | 405 kts | 259° |
| 2026-04-22 08:33 | 51.91332 | -0.52186 | 20734 ft | 406 kts | 259° |
| 2026-04-22 08:33 | 51.90732 | -0.56669 | 21374 ft | 407 kts | 260° |
| 2026-04-22 08:34 | 51.90136 | -0.61113 | 21960 ft | 409 kts | 260° |
| 2026-04-22 08:34 | 51.89525 | -0.65648 | 22568 ft | 411 kts | 261° |
| 2026-04-22 08:34 | 51.88913 | -0.70182 | 23163 ft | 413 kts | 261° |
| 2026-04-22 08:34 | 51.88293 | -0.74751 | 23716 ft | 415 kts | 261° |
| 2026-04-22 08:35 | 51.87677 | -0.79274 | 24210 ft | 417 kts | 261° |
| 2026-04-22 08:35 | 51.87050 | -0.83873 | 24674 ft | 419 kts | 261° |
| 2026-04-22 08:35 | 51.86418 | -0.88496 | 25132 ft | 421 kts | 261° |
| 2026-04-22 08:35 | 51.85440 | -0.92999 | 25585 ft | 429 kts | 246° |
| 2026-04-22 08:36 | 51.83674 | -0.96945 | 26084 ft | 439 kts | 229° |
| 2026-04-22 08:36 | 51.81277 | -0.99957 | 26598 ft | 446 kts | 213° |
| 2026-04-22 08:36 | 51.78393 | -1.01900 | 27056 ft | 454 kts | 198° |
| 2026-04-22 08:36 | 51.75264 | -1.02874 | 27457 ft | 459 kts | 193° |
| 2026-04-22 08:37 | 51.72105 | -1.03753 | 27821 ft | 462 kts | 193° |
| 2026-04-22 08:37 | 51.68919 | -1.04604 | 28207 ft | 464 kts | 193° |
| 2026-04-22 08:37 | 51.65707 | -1.05325 | 28585 ft | 470 kts | 186° |
| 2026-04-22 08:37 | 51.62456 | -1.04965 | 28997 ft | 477 kts | 171° |
| 2026-04-22 08:38 | 51.59288 | -1.03269 | 29336 ft | 485 kts | 155° |
| 2026-04-22 08:38 | 51.56393 | -1.00381 | 29701 ft | 489 kts | 147° |
| 2026-04-22 08:38 | 51.53576 | -0.97252 | 30003 ft | 493 kts | 147° |
| 2026-04-22 08:38 | 51.50787 | -0.94122 | 30337 ft | 496 kts | 146° |
| 2026-04-22 08:39 | 51.47944 | -0.90904 | 30530 ft | 501 kts | 146° |
| 2026-04-22 08:39 | 51.45013 | -0.87859 | 30851 ft | 500 kts | 156° |
| 2026-04-22 08:39 | 51.41799 | -0.85731 | 31182 ft | 499 kts | 160° |
| 2026-04-22 08:39 | 51.38576 | -0.83618 | 31546 ft | 499 kts | 160° |
| 2026-04-22 08:40 | 51.35401 | -0.81558 | 31957 ft | 498 kts | 160° |
| 2026-04-22 08:40 | 51.32189 | -0.79500 | 32348 ft | 497 kts | 160° |
| 2026-04-22 08:40 | 51.28962 | -0.77440 | 32776 ft | 495 kts | 160° |
| 2026-04-22 08:40 | 51.25756 | -0.75397 | 33193 ft | 494 kts | 160° |
| 2026-04-22 08:41 | 51.22597 | -0.73388 | 33594 ft | 493 kts | 160° |
| 2026-04-22 08:41 | 51.19396 | -0.71355 | 34011 ft | 492 kts | 160° |
| 2026-04-22 08:41 | 51.16210 | -0.69335 | 34390 ft | 491 kts | 160° |
| 2026-04-22 08:41 | 51.13035 | -0.67325 | 34735 ft | 490 kts | 160° |
| 2026-04-22 08:42 | 51.09862 | -0.65318 | 35084 ft | 489 kts | 160° |
| 2026-04-22 08:42 | 51.06703 | -0.63317 | 35432 ft | 488 kts | 159° |
| 2026-04-22 08:42 | 51.03763 | -0.60752 | 35767 ft | 488 kts | 146° |
| 2026-04-22 08:42 | 51.00957 | -0.57696 | 36095 ft | 487 kts | 148° |
| 2026-04-22 08:43 | 50.98156 | -0.54747 | 36392 ft | 486 kts | 147° |
| 2026-04-22 08:43 | 50.95337 | -0.51754 | 36710 ft | 485 kts | 147° |
| 2026-04-22 08:43 | 50.92535 | -0.48775 | 37028 ft | 483 kts | 147° |
| 2026-04-22 08:43 | 50.89742 | -0.45807 | 37286 ft | 483 kts | 147° |
| 2026-04-22 08:44 | 50.86973 | -0.42869 | 37306 ft | 483 kts | 147° |
| 2026-04-22 08:44 | 50.81401 | -0.36969 | 37296 ft | 481 kts | 147° |
| 2026-04-22 08:45 | 50.75829 | -0.31086 | 37291 ft | 481 kts | 147° |
| 2026-04-22 08:45 | 50.70275 | -0.25239 | 37291 ft | 481 kts | 147° |
| 2026-04-22 08:46 | 50.64699 | -0.19386 | 37276 ft | 481 kts | 147° |
| 2026-04-22 08:46 | 50.59160 | -0.13589 | 37281 ft | 480 kts | 148° |
| 2026-04-22 08:47 | 50.53599 | -0.07785 | 37284 ft | 480 kts | 148° |
| 2026-04-22 08:47 | 50.48016 | -0.01975 | 37276 ft | 480 kts | 148° |
| 2026-04-22 08:48 | 50.42415 | 0.03837 | 37283 ft | 483 kts | 148° |
| 2026-04-22 08:48 | 50.37748 | 0.08667 | 37275 ft | 483 kts | 148° |
| 2026-04-22 08:49 | 50.32167 | 0.14428 | 37268 ft | 483 kts | 148° |
| 2026-04-22 08:49 | 50.26540 | 0.20220 | 37271 ft | 478 kts | 148° |
| 2026-04-22 08:50 | 50.21048 | 0.25860 | 37260 ft | 473 kts | 148° |
| 2026-04-22 08:50 | 50.15544 | 0.31526 | 37264 ft | 474 kts | 148° |
| 2026-04-22 08:51 | 50.10061 | 0.37153 | 37262 ft | 473 kts | 148° |
| 2026-04-22 08:51 | 50.04537 | 0.42806 | 37257 ft | 473 kts | 148° |
| 2026-04-22 08:52 | 49.99047 | 0.48409 | 37263 ft | 475 kts | 148° |
| 2026-04-22 08:52 | 49.93494 | 0.54061 | 37240 ft | 476 kts | 148° |
| 2026-04-22 08:53 | 49.87985 | 0.59653 | 37248 ft | 475 kts | 148° |
| 2026-04-22 08:53 | 49.82669 | 0.65806 | 37253 ft | 476 kts | 142° |
| 2026-04-22 08:54 | 49.77546 | 0.72235 | 37224 ft | 476 kts | 142° |
| 2026-04-22 08:54 | 49.72394 | 0.78704 | 37229 ft | 477 kts | 142° |
| 2026-04-22 08:55 | 49.67239 | 0.85157 | 37224 ft | 477 kts | 142° |
| 2026-04-22 08:55 | 49.62072 | 0.91611 | 37241 ft | 477 kts | 142° |
| 2026-04-22 08:56 | 49.56927 | 0.98015 | 37215 ft | 478 kts | 142° |
| 2026-04-22 08:56 | 49.51733 | 1.04464 | 37194 ft | 478 kts | 142° |
| 2026-04-22 08:57 | 49.46560 | 1.10869 | 37212 ft | 479 kts | 142° |
| 2026-04-22 08:57 | 49.41352 | 1.17300 | 37212 ft | 479 kts | 142° |
| 2026-04-22 08:58 | 49.36185 | 1.23663 | 37211 ft | 479 kts | 142° |
| 2026-04-22 08:58 | 49.30965 | 1.30073 | 37213 ft | 479 kts | 142° |
| 2026-04-22 08:59 | 49.25752 | 1.36457 | 37218 ft | 480 kts | 142° |
| 2026-04-22 08:59 | 49.20554 | 1.42805 | 37197 ft | 481 kts | 142° |
| 2026-04-22 09:00 | 49.15317 | 1.49183 | 37187 ft | 481 kts | 142° |
| 2026-04-22 09:00 | 49.10071 | 1.55554 | 37191 ft | 481 kts | 142° |
| 2026-04-22 09:01 | 49.04848 | 1.61880 | 37184 ft | 481 kts | 142° |
| 2026-04-22 09:01 | 48.99589 | 1.68232 | 37189 ft | 481 kts | 143° |
| 2026-04-22 09:02 | 48.94358 | 1.74533 | 37193 ft | 481 kts | 143° |
| 2026-04-22 09:02 | 48.89082 | 1.80869 | 37191 ft | 483 kts | 143° |
| 2026-04-22 09:03 | 48.83830 | 1.87161 | 37188 ft | 483 kts | 143° |
| 2026-04-22 09:03 | 48.78531 | 1.93490 | 37183 ft | 483 kts | 143° |
| 2026-04-22 09:04 | 48.73269 | 1.99759 | 37183 ft | 483 kts | 143° |
| 2026-04-22 09:04 | 48.67999 | 2.06019 | 37185 ft | 483 kts | 143° |
| 2026-04-22 09:05 | 48.62698 | 2.12301 | 37173 ft | 483 kts | 143° |
| 2026-04-22 09:05 | 48.57432 | 2.18544 | 37191 ft | 484 kts | 141° |
| 2026-04-22 09:06 | 48.52600 | 2.25689 | 37214 ft | 486 kts | 135° |
| 2026-04-22 09:06 | 48.47862 | 2.32865 | 37173 ft | 485 kts | 135° |
| 2026-04-22 09:07 | 48.43076 | 2.40105 | 37170 ft | 486 kts | 135° |
| 2026-04-22 09:07 | 48.38331 | 2.47262 | 37172 ft | 485 kts | 135° |
| 2026-04-22 09:08 | 48.33542 | 2.54466 | 37169 ft | 485 kts | 135° |
| 2026-04-22 09:08 | 48.28673 | 2.61535 | 37149 ft | 486 kts | 145° |
| 2026-04-22 09:08 | 48.25807 | 2.64041 | 37162 ft | 480 kts | 158° |
| 2026-04-22 09:09 | 48.22770 | 2.66176 | 37140 ft | 485 kts | 155° |
| 2026-04-22 09:09 | 48.16829 | 2.71016 | 37149 ft | 485 kts | 154° |
| 2026-04-22 09:10 | 48.10891 | 2.75737 | 37155 ft | 484 kts | 154° |
| 2026-04-22 09:10 | 48.04767 | 2.79872 | 37163 ft | 482 kts | 160° |
| 2026-04-22 09:11 | 47.98596 | 2.83775 | 37145 ft | 482 kts | 159° |
| 2026-04-22 09:11 | 47.92410 | 2.87729 | 37136 ft | 483 kts | 159° |
| 2026-04-22 09:12 | 47.86248 | 2.91662 | 37136 ft | 483 kts | 159° |
| 2026-04-22 09:12 | 47.80074 | 2.95593 | 37157 ft | 483 kts | 159° |
| 2026-04-22 09:13 | 47.73918 | 2.99502 | 37115 ft | 484 kts | 159° |
| 2026-04-22 09:13 | 47.67712 | 3.03433 | 37120 ft | 484 kts | 159° |
| 2026-04-22 09:14 | 47.61536 | 3.07334 | 37115 ft | 484 kts | 160° |
| 2026-04-22 09:14 | 47.55327 | 3.11247 | 37113 ft | 484 kts | 160° |
| 2026-04-22 09:15 | 47.49123 | 3.15112 | 37111 ft | 484 kts | 160° |
| 2026-04-22 09:15 | 47.42923 | 3.18967 | 37102 ft | 484 kts | 160° |
| 2026-04-22 09:16 | 47.36723 | 3.22811 | 37103 ft | 484 kts | 160° |
| 2026-04-22 09:16 | 47.30542 | 3.26634 | 37087 ft | 484 kts | 160° |
| 2026-04-22 09:17 | 47.24328 | 3.30468 | 37091 ft | 484 kts | 160° |
| 2026-04-22 09:17 | 47.18115 | 3.34291 | 37091 ft | 485 kts | 160° |
| 2026-04-22 09:18 | 47.11887 | 3.38115 | 37083 ft | 485 kts | 160° |
| 2026-04-22 09:18 | 47.05672 | 3.41920 | 37080 ft | 485 kts | 160° |
| 2026-04-22 09:19 | 46.99406 | 3.45746 | 37077 ft | 486 kts | 160° |
| 2026-04-22 09:19 | 46.93189 | 3.49534 | 37079 ft | 486 kts | 160° |
| 2026-04-22 09:20 | 46.86977 | 3.53309 | 37075 ft | 483 kts | 160° |
| 2026-04-22 09:20 | 46.80757 | 3.57078 | 37077 ft | 483 kts | 160° |
| 2026-04-22 09:21 | 46.74686 | 3.61306 | 37058 ft | 486 kts | 145° |
| 2026-04-22 09:21 | 46.72199 | 3.64635 | 37079 ft | 487 kts | 130° |
| 2026-04-22 09:21 | 46.70285 | 3.68698 | 37058 ft | 487 kts | 115° |
| 2026-04-22 09:21 | 46.69111 | 3.73294 | 37093 ft | 483 kts | 102° |
| 2026-04-22 09:22 | 46.68249 | 3.77984 | 37073 ft | 486 kts | 102° |
| 2026-04-22 09:22 | 46.66558 | 3.87527 | 37093 ft | 485 kts | 102° |
| 2026-04-22 09:23 | 46.64914 | 3.97035 | 37090 ft | 485 kts | 102° |
| 2026-04-22 09:23 | 46.63258 | 4.06593 | 37109 ft | 486 kts | 101° |
| 2026-04-22 09:24 | 46.61600 | 4.16112 | 37094 ft | 487 kts | 101° |
| 2026-04-22 09:24 | 46.59936 | 4.25618 | 37095 ft | 487 kts | 101° |
| 2026-04-22 09:25 | 46.58251 | 4.35191 | 37095 ft | 487 kts | 102° |
| 2026-04-22 09:25 | 46.56567 | 4.44709 | 37120 ft | 487 kts | 101° |
| 2026-04-22 09:26 | 46.54876 | 4.54212 | 37096 ft | 488 kts | 102° |
| 2026-04-22 09:26 | 46.53160 | 4.63810 | 37096 ft | 488 kts | 102° |
| 2026-04-22 09:27 | 46.51448 | 4.73328 | 37093 ft | 488 kts | 102° |
| 2026-04-22 09:27 | 46.49727 | 4.82854 | 37083 ft | 488 kts | 102° |
| 2026-04-22 09:28 | 46.47995 | 4.92387 | 37089 ft | 491 kts | 102° |
| 2026-04-22 09:28 | 46.46252 | 5.01939 | 37090 ft | 491 kts | 102° |
| 2026-04-22 09:29 | 46.44491 | 5.11540 | 37089 ft | 490 kts | 102° |
| 2026-04-22 09:29 | 46.42732 | 5.21084 | 37078 ft | 490 kts | 102° |
| 2026-04-22 09:30 | 46.40966 | 5.30622 | 37075 ft | 492 kts | 102° |
| 2026-04-22 09:30 | 46.39188 | 5.40178 | 37074 ft | 493 kts | 102° |
| 2026-04-22 09:31 | 46.37413 | 5.49740 | 37081 ft | 493 kts | 102° |
| 2026-04-22 09:31 | 46.35630 | 5.59290 | 37079 ft | 493 kts | 102° |
| 2026-04-22 09:32 | 46.33832 | 5.68876 | 37070 ft | 496 kts | 102° |
| 2026-04-22 09:32 | 46.32007 | 5.78546 | 37111 ft | 496 kts | 102° |
| 2026-04-22 09:33 | 46.30188 | 5.88148 | 37116 ft | 496 kts | 102° |
| 2026-04-22 09:33 | 46.28358 | 5.97756 | 37126 ft | 496 kts | 102° |
| 2026-04-22 09:34 | 46.26512 | 6.07373 | 37149 ft | 499 kts | 104° |
| 2026-04-22 09:34 | 46.25216 | 6.11984 | 37092 ft | 502 kts | 119° |
| 2026-04-22 09:34 | 46.23121 | 6.16012 | 37145 ft | 502 kts | 135° |
| 2026-04-22 09:35 | 46.15508 | 6.26463 | 37133 ft | 504 kts | 138° |
| 2026-04-22 09:35 | 46.10369 | 6.33343 | 37114 ft | 503 kts | 138° |
| 2026-04-22 09:36 | 46.05232 | 6.40188 | 37089 ft | 506 kts | 138° |
| 2026-04-22 09:36 | 46.00033 | 6.47097 | 37070 ft | 506 kts | 138° |
| 2026-04-22 09:37 | 45.94877 | 6.53929 | 37126 ft | 507 kts | 138° |
| 2026-04-22 09:37 | 45.89704 | 6.60768 | 37035 ft | 505 kts | 138° |
| 2026-04-22 09:38 | 45.84538 | 6.67577 | 37060 ft | 506 kts | 138° |
| 2026-04-22 09:38 | 45.79349 | 6.74384 | 37080 ft | 508 kts | 138° |
| 2026-04-22 09:39 | 45.74115 | 6.81216 | 37071 ft | 506 kts | 138° |
| 2026-04-22 09:39 | 45.68934 | 6.87964 | 37088 ft | 506 kts | 138° |
| 2026-04-22 09:40 | 45.63710 | 6.94749 | 37129 ft | 505 kts | 138° |
| 2026-04-22 09:40 | 45.58519 | 7.01473 | 37111 ft | 506 kts | 139° |
| 2026-04-22 09:41 | 45.53344 | 7.08312 | 37163 ft | 502 kts | 131° |
| 2026-04-22 09:41 | 45.49461 | 7.16390 | 37167 ft | 497 kts | 120° |
| 2026-04-22 09:42 | 45.45810 | 7.24829 | 37147 ft | 501 kts | 121° |
| 2026-04-22 09:42 | 45.42106 | 7.33277 | 37187 ft | 502 kts | 122° |
| 2026-04-22 09:43 | 45.39957 | 7.37114 | 37125 ft | 500 kts | 138° |
| 2026-04-22 09:43 | 45.37242 | 7.40184 | 37202 ft | 497 kts | 144° |
| 2026-04-22 09:43 | 45.34483 | 7.43133 | 37055 ft | 502 kts | 144° |
| 2026-04-22 09:43 | 45.31672 | 7.46098 | 36731 ft | 499 kts | 146° |
| 2026-04-22 09:44 | 45.28868 | 7.49015 | 36427 ft | 499 kts | 146° |
| 2026-04-22 09:44 | 45.26091 | 7.51880 | 36160 ft | 501 kts | 146° |
| 2026-04-22 09:44 | 45.23277 | 7.54776 | 35752 ft | 498 kts | 147° |
| 2026-04-22 09:44 | 45.20449 | 7.57679 | 34860 ft | 504 kts | 147° |
| 2026-04-22 09:45 | 45.17572 | 7.60631 | 33762 ft | 514 kts | 147° |
| 2026-04-22 09:45 | 45.15647 | 7.62608 | 33085 ft | 518 kts | 147° |
| 2026-04-22 09:45 | 45.11751 | 7.66599 | 32110 ft | 517 kts | 147° |
| 2026-04-22 09:45 | 45.08843 | 7.69573 | 31597 ft | 512 kts | 147° |
| 2026-04-22 09:46 | 45.05974 | 7.72502 | 30924 ft | 511 kts | 147° |
| 2026-04-22 09:46 | 45.04021 | 7.74494 | 30348 ft | 514 kts | 147° |
| 2026-04-22 09:46 | 45.01089 | 7.77480 | 29181 ft | 521 kts | 146° |
| 2026-04-22 09:46 | 44.98177 | 7.80444 | 28081 ft | 523 kts | 146° |
| 2026-04-22 09:47 | 44.95233 | 7.83454 | 26925 ft | 517 kts | 145° |
| 2026-04-22 09:47 | 44.92628 | 7.86939 | 25930 ft | 511 kts | 128° |
| 2026-04-22 09:47 | 44.90704 | 7.91044 | 25071 ft | 501 kts | 120° |
| 2026-04-22 09:47 | 44.88935 | 7.95256 | 24182 ft | 492 kts | 120° |
| 2026-04-22 09:48 | 44.87237 | 7.99366 | 23272 ft | 484 kts | 119° |
| 2026-04-22 09:48 | 44.85567 | 8.03456 | 22341 ft | 477 kts | 119° |
| 2026-04-22 09:48 | 44.83948 | 8.07442 | 21443 ft | 470 kts | 119° |
| 2026-04-22 09:48 | 44.82332 | 8.11424 | 20600 ft | 463 kts | 119° |
| 2026-04-22 09:49 | 44.80741 | 8.15338 | 19804 ft | 456 kts | 119° |
| 2026-04-22 09:49 | 44.79171 | 8.19196 | 19046 ft | 449 kts | 119° |
| 2026-04-22 09:49 | 44.77621 | 8.22999 | 18267 ft | 443 kts | 119° |
| 2026-04-22 09:49 | 44.76125 | 8.26664 | 17745 ft | 429 kts | 119° |
| 2026-04-22 09:50 | 44.74645 | 8.30287 | 17205 ft | 418 kts | 119° |
| 2026-04-22 09:50 | 44.73223 | 8.33763 | 16681 ft | 408 kts | 119° |
| 2026-04-22 09:50 | 44.71819 | 8.37193 | 16191 ft | 398 kts | 119° |
| 2026-04-22 09:50 | 44.70459 | 8.40508 | 15820 ft | 385 kts | 118° |
| 2026-04-22 09:51 | 44.69131 | 8.43744 | 15425 ft | 384 kts | 118° |
| 2026-04-22 09:51 | 44.67798 | 8.46989 | 15204 ft | 376 kts | 119° |
| 2026-04-22 09:51 | 44.66503 | 8.50135 | 15076 ft | 366 kts | 119° |
| 2026-04-22 09:51 | 44.65243 | 8.53194 | 14940 ft | 357 kts | 118° |
| 2026-04-22 09:52 | 44.64022 | 8.56154 | 14807 ft | 350 kts | 118° |
| 2026-04-22 09:52 | 44.62805 | 8.59103 | 14641 ft | 345 kts | 119° |
| 2026-04-22 09:52 | 44.61601 | 8.62017 | 14330 ft | 345 kts | 118° |
| 2026-04-22 09:52 | 44.60412 | 8.64894 | 13970 ft | 346 kts | 118° |
| 2026-04-22 09:53 | 44.59208 | 8.67812 | 13633 ft | 344 kts | 118° |
| 2026-04-22 09:53 | 44.58006 | 8.70728 | 13314 ft | 343 kts | 118° |
| 2026-04-22 09:53 | 44.56829 | 8.73583 | 12986 ft | 340 kts | 118° |
| 2026-04-22 09:53 | 44.55645 | 8.76449 | 12746 ft | 335 kts | 118° |
| 2026-04-22 09:54 | 44.54485 | 8.79255 | 12497 ft | 330 kts | 118° |
| 2026-04-22 09:54 | 44.53354 | 8.81990 | 12256 ft | 325 kts | 118° |
| 2026-04-22 09:54 | 44.52222 | 8.84723 | 12033 ft | 321 kts | 118° |
| 2026-04-22 09:54 | 44.51107 | 8.87415 | 11787 ft | 317 kts | 118° |
| 2026-04-22 09:55 | 44.49999 | 8.90084 | 11552 ft | 315 kts | 118° |
| 2026-04-22 09:55 | 44.48917 | 8.92691 | 11335 ft | 313 kts | 118° |
| 2026-04-22 09:55 | 44.47821 | 8.95326 | 11094 ft | 310 kts | 118° |
| 2026-04-22 09:55 | 44.46738 | 8.97925 | 10871 ft | 308 kts | 119° |
| 2026-04-22 09:56 | 44.45659 | 9.00517 | 10659 ft | 306 kts | 118° |
| 2026-04-22 09:56 | 44.44603 | 9.03051 | 10435 ft | 303 kts | 118° |
| 2026-04-22 09:56 | 44.43463 | 9.05513 | 10240 ft | 296 kts | 131° |
| 2026-04-22 09:56 | 44.41865 | 9.07131 | 10069 ft | 281 kts | 157° |
| 2026-04-22 09:57 | 44.39994 | 9.07662 | 9785 ft | 268 kts | 181° |
| 2026-04-22 09:57 | 44.38175 | 9.07532 | 9447 ft | 260 kts | 185° |
| 2026-04-22 09:57 | 44.36389 | 9.07342 | 9107 ft | 253 kts | 186° |
| 2026-04-22 09:57 | 44.34663 | 9.07143 | 8747 ft | 249 kts | 187° |
| 2026-04-22 09:58 | 44.32941 | 9.06932 | 8390 ft | 246 kts | 186° |
| 2026-04-22 09:58 | 44.31247 | 9.06717 | 8036 ft | 242 kts | 186° |
| 2026-04-22 09:58 | 44.29565 | 9.06640 | 7641 ft | 241 kts | 170° |
| 2026-04-22 09:58 | 44.28055 | 9.07534 | 7269 ft | 237 kts | 143° |
| 2026-04-22 09:59 | 44.26737 | 9.08846 | 6959 ft | 234 kts | 142° |
| 2026-04-22 09:59 | 44.25433 | 9.10186 | 6633 ft | 231 kts | 142° |
| 2026-04-22 09:59 | 44.24145 | 9.11524 | 6293 ft | 229 kts | 141° |
| 2026-04-22 09:59 | 44.22887 | 9.12842 | 5954 ft | 227 kts | 141° |
| 2026-04-22 10:00 | 44.21871 | 9.14466 | 5568 ft | 221 kts | 109° |
| 2026-04-22 10:00 | 44.21776 | 9.16531 | 5284 ft | 210 kts | 75° |
| 2026-04-22 10:00 | 44.22362 | 9.18342 | 5119 ft | 207 kts | 51° |
| 2026-04-22 10:00 | 44.23452 | 9.19622 | 4980 ft | 206 kts | 25° |
| 2026-04-22 10:01 | 44.24842 | 9.20037 | 4859 ft | 206 kts | 358° |
| 2026-04-22 10:01 | 44.26268 | 9.19830 | 4755 ft | 209 kts | 355° |
| 2026-04-22 10:01 | 44.27720 | 9.19596 | 4640 ft | 210 kts | 349° |
| 2026-04-22 10:01 | 44.28979 | 9.18646 | 4499 ft | 211 kts | 319° |
| 2026-04-22 10:02 | 44.29998 | 9.17144 | 4491 ft | 213 kts | 314° |
| 2026-04-22 10:02 | 44.31010 | 9.15656 | 4404 ft | 213 kts | 317° |
| 2026-04-22 10:02 | 44.32071 | 9.14211 | 4279 ft | 212 kts | 317° |
| 2026-04-22 10:02 | 44.33129 | 9.12786 | 4129 ft | 208 kts | 317° |
| 2026-04-22 10:03 | 44.34144 | 9.11411 | 3949 ft | 198 kts | 317° |
| 2026-04-22 10:03 | 44.35105 | 9.10099 | 3757 ft | 192 kts | 315° |
| 2026-04-22 10:03 | 44.35867 | 9.08568 | 3506 ft | 192 kts | 297° |
| 2026-04-22 10:03 | 44.36281 | 9.06824 | 3260 ft | 189 kts | 289° |
| 2026-04-22 10:04 | 44.36650 | 9.05110 | 3041 ft | 175 kts | 290° |
| 2026-04-22 10:04 | 44.36989 | 9.03563 | 2795 ft | 163 kts | 290° |
| 2026-04-22 10:04 | 44.37320 | 9.02057 | 2556 ft | 160 kts | 290° |
| 2026-04-22 10:04 | 44.37647 | 9.00577 | 2341 ft | 159 kts | 291° |
| 2026-04-22 10:05 | 44.37964 | 8.99132 | 2105 ft | 156 kts | 292° |
| 2026-04-22 10:05 | 44.38280 | 8.97685 | 1895 ft | 152 kts | 292° |
| 2026-04-22 10:05 | 44.38580 | 8.96316 | 1688 ft | 144 kts | 291° |
| 2026-04-22 10:05 | 44.38870 | 8.95005 | 1477 ft | 142 kts | 289° |
| 2026-04-22 10:06 | 44.39164 | 8.93669 | 1256 ft | 144 kts | 291° |
| 2026-04-22 10:06 | 44.39502 | 8.92351 | 1083 ft | 144 kts | 293° |
| 2026-04-22 10:06 | 44.39832 | 8.91048 | 894 ft | 142 kts | 293° |
| 2026-04-22 10:06 | 44.40120 | 8.89715 | 670 ft | 144 kts | 290° |
| 2026-04-22 10:07 | 44.40405 | 8.88367 | 487 ft | 143 kts | 289° |
| 2026-04-22 10:07 | 44.40641 | 8.87011 | 278 ft | 147 kts | 290° |
| 2026-04-22 10:07 | 44.40902 | 8.85631 | 62 ft | 144 kts | 292° |
| 2026-04-22 10:07 | 44.41156 | 8.84395 | 27 ft | 107 kts | 284° |
| 2026-04-22 10:08 | 44.41292 | 8.83685 | 23 ft | 45 kts | 283° |
| 2026-04-22 10:08 | 44.41362 | 8.83330 | 26 ft | 38 kts | 287° |
| 2026-04-22 10:08 | 44.41462 | 8.83105 | 24 ft | 20 kts | 324° |
| 2026-04-22 10:08 | 44.41544 | 8.83174 | 24 ft | 18 kts | 90° |
| 2026-04-22 10:09 | 44.41514 | 8.83348 | 27 ft | 20 kts | 106° |
| 2026-04-22 10:09 | 44.41476 | 8.83542 | 23 ft | 22 kts | 105° |
| 2026-04-22 10:09 | 44.41434 | 8.83759 | 22 ft | 24 kts | 105° |
| 2026-04-22 10:09 | 44.41387 | 8.83996 | 22 ft | 26 kts | 106° |
| 2026-04-22 10:10 | 44.41337 | 8.84249 | 22 ft | 28 kts | 104° |
| 2026-04-22 10:10 | 44.41283 | 8.84521 | 26 ft | 30 kts | 106° |
| 2026-04-22 10:10 | 44.41230 | 8.84793 | 22 ft | 17 kts | 104° |
| 2026-04-22 10:10 | 44.41228 | 8.84909 | 24 ft | 7 kts | 36° |
| 2026-04-22 10:11 | 44.41291 | 8.84939 | 22 ft | 13 kts | 14° |
| 2026-04-22 10:11 | 44.41369 | 8.85012 | 22 ft | 15 kts | 36° |
| 2026-04-22 10:11 | 44.41410 | 8.85035 | 24 ft | 0 kts | 14° |